Date,TemperatureHighF,TemperatureAvgF,TemperatureLowF,DewpointHighF,DewpointAvgF,DewpointLowF,HumidityHigh,HumidityAvg,HumidityLow,PressureMaxIn,PressureMinIn,WindSpeedMaxMPH,WindSpeedAvgMPH,GustSpeedMaxMPH,PrecipitationSumIn
2014-1-1,75.4,60.3,47.3,21.5,13.2,2.3,34,17,6,30.07,29.99,13,1,13,0.00
2014-1-2,77.6,61.8,51.0,21.9,18.0,14.1,28,19,10,30.04,29.93,8,0,8,0.00
2014-1-3,76.0,59.5,48.9,28.8,23.1,18.8,38,26,13,29.96,29.83,10,1,10,0.00
2014-1-4,70.8,55.7,45.5,28.8,25.9,19.7,50,33,16,29.97,29.86,8,0,9,0.00
2014-1-5,70.3,56.4,47.7,26.5,7.2,-4.7,40,16,5,30.14,29.97,13,1,15,0.00
2014-1-6,71.1,56.5,46.8,7.8,0.9,-6.3,18,11,6,30.19,30.07,17,2,18,0.00
2014-1-7,67.4,55.5,45.4,18.0,8.7,1.5,28,16,8,30.07,29.99,9,0,9,0.00
2014-1-8,68.8,53.3,44.5,38.2,23.5,14.3,74,34,16,30.06,29.94,10,0,10,0.00
2014-1-9,61.5,49.7,41.2,46.8,40.3,32.8,90,71,40,30.02,29.91,8,1,11,0.00
2014-1-10,74.4,61.7,45.5,40.3,31.6,19.5,82,36,13,30.09,29.99,9,1,9,0.00
2014-1-11,75.6,59.0,47.4,38.0,31.2,23.6,63,37,15,30.10,29.97,10,1,11,0.00
2014-1-12,63.9,54.2,44.6,37.8,28.9,8.3,68,41,16,30.16,29.96,12,1,13,0.00
2014-1-13,71.5,58.0,48.6,15.1,11.0,6.0,24,16,10,30.30,30.15,13,2,17,0.00
2014-1-14,74.9,61.8,49.8,13.6,8.0,-1.7,23,13,6,30.29,30.17,21,4,21,0.00
2014-1-15,77.9,63.7,52.3,16.3,11.3,5.9,19,13,8,30.21,30.08,14,2,15,0.00
2014-1-16,76.1,63.3,54.7,9.6,3.4,-4.6,14,9,4,30.11,30.00,16,3,17,0.00
2014-1-17,79.4,63.8,52.3,7.7,3.3,-0.5,14,9,5,30.09,29.98,12,1,12,0.00
2014-1-18,80.3,63.9,53.3,9.3,2.0,-10.3,15,9,3,30.04,29.94,9,1,10,0.00
2014-1-19,77.9,61.4,50.2,16.6,8.7,0.3,18,13,5,30.05,29.98,13,1,13,0.00
2014-1-20,78.3,62.3,48.8,14.8,9.3,4.9,21,13,7,30.13,30.01,8,1,9,0.00
2014-1-21,75.3,62.7,53.2,12.5,7.7,0.8,17,12,6,30.12,30.01,11,1,11,0.00
2014-1-22,76.7,62.2,50.2,34.4,14.3,3.4,44,19,6,30.01,29.81,9,1,10,0.00
2014-1-23,76.3,59.4,47.6,25.1,14.4,4.0,38,20,7,30.05,29.80,13,1,13,0.00
2014-1-24,70.6,60.6,52.9,23.5,13.8,9.5,27,16,10,30.16,30.04,12,1,12,0.00
2014-1-25,73.5,60.6,51.1,34.9,23.4,14.8,52,26,13,30.15,30.03,9,1,9,0.00
2014-1-26,65.0,55.4,47.0,43.4,35.9,30.2,79,50,29,30.07,29.95,10,1,10,0.00
2014-1-27,68.8,54.4,45.4,45.5,41.9,31.2,86,66,25,30.04,29.93,13,1,13,0.01
2014-1-28,75.6,58.9,45.8,43.7,35.7,18.1,87,49,14,30.07,29.97,10,1,10,0.00
2014-1-29,77.0,62.4,52.3,41.1,31.0,20.0,57,35,13,30.04,29.86,9,1,11,0.00
2014-1-30,62.0,52.9,46.4,48.3,42.0,31.8,89,67,44,29.87,29.79,16,1,16,0.00
2014-1-31,56.0,49.3,39.2,48.2,40.5,31.4,90,73,44,29.90,29.79,11,1,11,0.00
2014-2-1,56.2,45.8,37.3,34.8,16.7,2.2,85,37,13,30.02,29.88,20,4,22,0.00
2014-2-2,58.7,46.5,35.2,36.2,15.5,3.8,70,30,18,30.05,29.93,17,2,18,0.00
2014-2-3,56.5,46.1,37.5,39.0,35.2,30.8,89,68,39,29.94,29.83,14,2,15,0.02
2014-2-4,56.5,46.4,37.5,41.6,36.4,33.5,90,70,43,30.03,29.93,9,1,10,0.00
2014-2-5,58.3,46.9,37.3,40.4,36.0,30.1,89,69,37,30.08,29.94,15,1,15,0.00
2014-2-6,51.0,46.2,43.1,44.9,41.2,37.8,91,83,65,30.02,29.92,13,1,13,0.09
2014-2-7,57.0,48.3,42.6,47.3,42.9,38.7,94,83,55,30.16,29.98,12,1,12,0.01
2014-2-8,64.0,51.0,43.2,44.8,42.8,40.8,93,76,47,30.22,30.13,12,1,12,0.00
2014-2-9,62.0,49.2,39.9,49.7,44.1,37.4,95,84,57,30.17,30.05,9,0,9,0.01
2014-2-10,65.8,53.1,43.3,49.8,45.0,40.5,94,76,47,30.10,29.96,15,1,15,0.01
2014-2-11,74.2,60.8,49.2,41.7,32.9,19.8,72,39,13,30.04,29.96,11,1,11,0.00
2014-2-12,78.8,66.3,52.8,32.6,26.2,17.3,46,25,10,30.08,29.99,4,1,12,0.00
2014-2-13,82.8,66.7,55.4,34.4,28.0,23.9,45,25,13,30.01,29.91,4,1,12,0.00
2014-2-14,84.0,67.3,54.4,29.5,24.8,12.2,38,23,7,29.97,29.90,6,2,15,0.00
2014-2-15,84.3,69.8,55.7,32.7,25.9,16.0,35,21,9,29.95,29.88,13,1,13,0.00
2014-2-16,79.0,63.2,53.1,39.0,32.2,25.8,56,34,15,30.00,29.87,11,1,11,0.00
2014-2-17,77.2,60.1,44.3,47.0,37.0,28.2,83,46,18,29.99,29.87,13,1,13,0.00
2014-2-18,71.8,54.9,40.3,45.2,39.7,30.9,92,62,25,29.97,29.89,10,1,10,0.00
2014-2-19,69.1,54.3,45.2,48.0,43.8,39.9,91,70,36,29.93,29.82,14,2,14,0.00
2014-2-20,76.8,61.3,46.7,44.8,24.1,12.7,86,31,9,30.00,29.89,14,2,14,0.00
2014-2-21,78.1,63.7,53.5,32.9,21.5,14.2,39,21,10,29.94,29.79,13,1,13,0.00
2014-2-22,70.6,61.8,49.9,34.2,28.2,17.9,46,29,16,29.85,29.77,6,1,9,0.00
2014-2-23,75.3,62.6,47.3,36.6,30.1,20.5,56,32,15,29.92,29.83,10,1,10,0.00
2014-2-24,75.6,59.2,46.7,40.3,33.5,25.3,72,42,16,29.94,29.83,10,1,14,0.00
2014-2-25,73.9,56.3,43.9,46.2,39.8,26.3,87,60,19,29.98,29.87,12,1,12,0.00
2014-2-26,54.7,48.3,44.2,45.9,43.3,40.6,89,83,62,30.00,29.93,12,1,12,0.00
2014-2-27,68.4,55.6,50.5,52.1,46.6,42.8,92,73,41,29.96,29.78,9,1,20,0.10
2014-2-28,57.2,52.2,46.8,54.2,48.7,43.3,92,88,81,29.81,29.55,28,5,28,1.84
2014-3-1,55.0,48.8,45.7,47.9,44.4,41.4,92,85,69,29.91,29.70,21,2,21,0.42
2014-3-2,54.2,49.6,44.1,50.0,46.0,41.4,93,88,77,30.10,29.91,11,1,11,0.07
2014-3-3,68.1,54.5,46.7,49.3,45.5,40.6,93,74,40,30.08,29.96,11,1,11,0.00
2014-3-4,65.2,53.3,46.5,51.0,47.2,43.3,93,81,54,30.00,29.89,10,1,10,0.01
2014-3-5,78.1,61.3,47.6,51.3,44.4,35.3,92,60,23,30.04,29.94,15,1,15,0.01
2014-3-6,74.7,60.6,50.8,51.5,47.4,38.3,90,64,39,29.98,29.87,10,1,14,0.00
2014-3-7,72.3,60.3,49.5,51.6,34.5,17.2,94,49,14,29.92,29.84,20,4,21,0.00
2014-3-8,77.4,63.3,52.6,24.7,19.8,14.9,31,20,11,30.09,29.92,12,2,14,0.00
2014-3-9,80.1,65.5,53.9,26.8,18.2,9.6,28,17,8,30.10,29.98,13,1,14,0.00
2014-3-10,78.5,64.3,53.2,33.5,21.4,16.2,44,21,10,30.01,29.89,17,2,18,0.00
2014-3-11,74.9,60.7,48.6,34.2,26.5,18.5,52,30,15,29.93,29.85,14,1,14,0.00
2014-3-12,72.1,59.3,49.4,46.9,20.8,9.1,84,27,12,29.98,29.85,13,3,16,0.00
2014-3-13,71.5,56.1,45.2,46.5,39.8,22.9,88,60,17,29.95,29.81,13,2,14,0.00
2014-3-14,75.3,57.8,42.9,46.7,40.9,24.4,90,60,19,30.06,29.93,12,2,12,0.00
2014-3-15,81.4,65.2,48.3,46.4,29.2,7.9,84,36,6,30.15,30.03,21,4,21,0.00
2014-3-16,86.3,70.2,56.0,24.3,16.7,9.1,23,14,6,30.17,30.01,13,1,15,0.00
2014-3-17,78.1,64.1,51.9,47.2,30.0,18.6,83,31,14,30.01,29.68,17,2,19,0.00
2014-3-18,77.0,59.6,46.0,47.0,30.9,11.6,92,46,9,29.87,29.70,12,1,12,0.00
2014-3-19,78.5,61.6,48.0,40.0,17.6,4.3,56,21,6,29.98,29.87,14,1,14,0.00
2014-3-20,76.8,60.9,49.2,46.4,35.2,19.9,79,43,12,29.98,29.82,12,1,12,0.00
2014-3-21,66.8,54.4,45.5,47.5,44.5,41.6,92,72,43,29.93,29.84,13,1,14,0.01
2014-3-22,67.3,54.3,45.2,46.2,44.3,41.3,89,71,43,30.04,29.92,14,1,14,0.00
2014-3-23,70.9,55.1,44.2,49.7,45.6,41.7,92,73,37,30.06,29.95,12,1,13,0.00
2014-3-24,70.1,56.1,48.6,54.3,48.4,44.9,94,77,50,30.02,29.92,10,1,10,0.01
2014-3-25,65.5,54.3,50.1,51.6,48.6,44.5,94,82,56,29.96,29.82,13,1,13,0.01
2014-3-26,61.2,52.3,47.3,45.8,41.4,31.2,86,68,35,29.92,29.81,19,3,20,0.04
2014-3-27,63.5,52.1,42.1,44.2,40.2,36.5,88,67,38,30.03,29.90,14,1,14,0.00
2014-3-28,71.1,54.9,40.5,46.3,40.7,33.8,90,64,26,30.10,30.01,11,1,11,0.00
2014-3-29,78.5,61.6,48.0,45.5,42.0,30.6,83,54,22,30.09,29.89,15,2,15,0.00
2014-3-30,68.8,56.4,46.7,46.7,38.7,29.5,85,55,25,29.97,29.86,15,2,16,0.00
2014-3-31,68.8,52.3,41.3,40.1,35.7,29.5,82,57,27,29.96,29.86,14,1,15,0.00
2014-4-1,58.1,49.3,42.6,43.6,35.6,28.1,90,62,33,29.93,29.86,19,3,19,0.08
2014-4-2,56.5,47.3,40.5,39.5,36.0,29.2,88,67,39,30.02,29.85,20,3,23,0.09
2014-4-3,67.1,50.7,37.6,40.7,36.3,28.5,89,63,24,30.08,29.98,16,1,16,0.00
2014-4-4,62.7,51.3,43.2,41.6,38.4,31.2,83,63,34,30.00,29.85,13,1,13,0.00
2014-4-5,66.6,51.6,38.6,42.0,38.3,33.4,90,64,32,30.00,29.86,14,2,14,0.00
2014-4-6,77.9,61.2,46.0,39.5,29.7,17.6,76,37,12,30.06,29.94,28,4,28,0.00
2014-4-7,87.8,69.6,52.5,34.6,28.1,12.1,48,24,8,30.05,29.96,15,2,17,0.00
2014-4-8,90.1,72.9,57.6,32.2,25.6,17.8,31,19,8,30.03,29.92,15,1,23,0.00
2014-4-9,89.7,72.6,59.5,30.4,16.2,-11.1,31,14,3,29.96,29.85,15,2,15,0.00
2014-4-10,88.0,70.7,58.1,26.6,14.0,-7.8,22,12,4,29.90,29.81,12,1,12,0.00
2014-4-11,84.7,68.7,52.5,39.3,23.0,-1.8,60,21,5,29.84,29.73,13,2,14,0.00
2014-4-12,72.0,56.4,45.5,45.6,43.1,39.7,88,64,35,29.83,29.74,15,2,15,0.00
2014-4-13,69.4,58.5,48.5,46.2,44.6,42.5,85,62,40,29.96,29.86,13,2,14,0.00
2014-4-14,84.9,66.2,45.7,45.1,28.0,7.8,90,36,6,30.01,29.92,19,1,19,0.00
2014-4-15,82.8,68.2,54.8,43.6,30.1,17.0,59,27,9,29.95,29.73,13,2,17,0.00
2014-4-16,80.5,62.7,48.5,48.3,42.5,35.6,72,50,25,29.77,29.68,12,1,13,0.00
2014-4-17,77.0,61.1,49.2,51.1,48.1,44.9,90,65,35,29.83,29.73,10,1,12,0.00
2014-4-18,72.7,58.5,52.5,51.0,48.6,40.0,90,72,33,29.87,29.75,12,1,12,0.00
2014-4-19,77.7,61.3,47.7,51.4,47.3,38.5,91,64,29,29.98,29.85,14,2,14,0.00
2014-4-20,82.4,65.7,50.5,52.0,46.3,39.0,83,54,24,29.98,29.92,14,2,14,0.00
2014-4-21,84.9,68.4,54.5,48.5,44.4,38.2,69,46,20,29.97,29.84,16,2,16,0.00
2014-4-22,71.5,58.4,50.4,51.7,46.2,38.1,91,67,30,29.87,29.78,17,2,17,0.00
2014-4-23,74.0,58.2,44.8,48.5,40.5,28.4,92,59,19,29.89,29.82,12,2,12,0.01
2014-4-24,79.4,62.7,47.6,47.0,39.1,31.4,80,46,22,29.91,29.81,15,2,15,0.00
2014-4-25,73.9,57.8,47.1,48.3,43.9,36.2,85,62,32,29.86,29.68,20,2,21,0.18
2014-4-26,62.3,51.4,43.6,46.1,37.3,31.2,88,61,34,29.92,29.64,17,4,24,0.15
2014-4-27,68.1,54.1,43.2,45.6,41.5,37.0,90,65,35,29.96,29.87,14,2,16,0.00
2014-4-28,80.5,63.7,45.2,45.7,37.4,24.0,86,45,14,29.95,29.84,17,3,17,0.00
2014-4-29,85.9,71.1,56.6,34.7,16.9,6.9,35,15,6,30.01,29.92,28,2,28,0.00
2014-4-30,83.2,71.6,60.5,15.5,7.7,1.6,17,9,5,29.99,29.88,17,5,22,0.00
2014-5-1,88.2,74.1,58.1,21.5,10.6,0.4,17,9,4,29.98,29.86,18,3,18,0.00
2014-5-2,95.1,77.6,61.6,26.1,17.0,6.0,19,11,4,29.92,29.80,16,2,18,0.00
2014-5-3,92.5,76.0,61.0,33.8,22.9,11.9,30,15,6,29.85,29.76,11,2,16,0.00
2014-5-4,87.2,70.5,55.0,40.5,31.6,21.1,48,25,13,29.89,29.79,14,2,14,0.00
2014-5-5,76.3,61.1,47.1,48.7,38.4,28.8,76,46,22,29.89,29.80,12,2,17,0.00
2014-5-6,63.9,54.2,46.8,46.9,39.1,32.6,78,58,35,29.82,29.72,24,3,24,0.00
2014-5-7,66.1,54.8,45.1,45.7,42.8,39.0,89,66,42,29.94,29.79,12,2,13,0.00
2014-5-8,72.0,57.9,47.1,46.5,44.3,41.7,86,63,36,29.99,29.91,16,2,16,0.00
2014-5-9,75.1,60.4,47.1,48.6,46.2,43.4,88,63,37,29.99,29.88,15,2,17,0.00
2014-5-10,72.8,58.5,48.2,50.3,47.4,44.5,91,70,40,29.90,29.72,15,2,16,0.00
2014-5-11,76.0,61.9,46.8,46.0,20.7,-5.4,87,33,5,29.91,29.74,27,6,28,0.00
2014-5-12,85.1,70.6,53.6,26.1,16.0,1.7,28,14,5,29.97,29.87,21,3,21,0.00
2014-5-13,88.2,74.2,59.6,21.1,13.3,-2.1,22,11,4,30.03,29.94,22,3,24,0.00
2014-5-14,83.4,70.8,64.7,11.3,7.7,4.2,12,9,6,30.00,29.96,26,4,26,0.00
2014-5-15,100.4,91.3,72.1,20.9,11.4,2.7,13,5,3,29.97,29.84,15,2,17,0.00
2014-5-16,96.6,81.2,67.6,31.4,19.9,13.7,24,11,5,29.90,29.78,12,2,20,0.00
2014-5-17,90.5,74.9,59.8,49.5,36.6,27.5,65,27,13,29.81,29.71,14,2,16,0.00
2014-5-18,82.6,66.6,52.9,54.4,46.7,27.8,88,53,18,29.80,29.71,17,2,17,0.00
2014-5-19,77.6,62.4,51.4,49.8,47.8,43.6,87,62,34,29.86,29.79,15,2,18,0.00
2014-5-20,68.1,59.0,53.1,47.9,40.9,32.9,82,53,29,29.88,29.82,17,3,18,0.00
2014-5-21,70.8,63.1,53.5,46.5,42.8,34.3,71,48,36,29.89,29.82,17,4,19,0.00
2014-5-22,67.8,64.1,58.0,50.9,47.6,40.0,70,55,47,29.91,29.82,15,5,17,0.00
2014-5-23,74.7,66.5,58.1,52.0,49.8,45.2,69,55,41,29.91,29.84,14,6,17,0.00
2014-5-24,73.3,67.7,59.3,54.2,52.5,43.5,79,59,47,29.90,29.80,13,5,15,0.00
2014-5-25,84.9,72.9,61.2,55.6,53.6,48.3,74,52,32,29.86,29.74,13,3,14,0.00
2014-5-26,90.7,79.2,72.5,55.6,53.4,44.6,55,42,27,29.84,29.76,14,2,14,0.00
2014-5-27,91.4,81.2,76.5,55.9,51.3,45.3,44,36,23,29.82,29.74,14,2,15,0.00
2014-5-28,76.8,76.3,67.6,57.0,49.7,49.3,66,40,38,29.77,29.71,7,0,7,0.00
2014-5-29,85.5,82.4,62.1,55.5,51.2,48.6,79,34,28,29.77,29.71,13,6,13,0.00
2014-5-30,89.9,80.7,72.5,53.8,47.6,36.1,43,32,20,29.76,29.68,17,4,17,0.00
2014-5-31,89.0,79.8,74.9,46.3,39.7,30.8,32,24,15,29.75,29.70,15,2,15,0.00
2014-6-1,89.3,78.1,61.6,41.5,34.6,29.2,34,21,13,29.74,29.67,14,2,14,0.00
2014-6-2,87.2,70.9,55.9,45.9,36.6,18.0,59,30,14,29.77,29.70,17,2,17,0.00
2014-6-3,88.8,71.2,52.0,45.9,37.5,26.7,68,34,12,29.81,29.72,15,2,16,0.00
2014-6-4,89.5,72.1,54.7,44.2,36.0,19.8,57,32,9,29.75,29.68,14,2,15,0.00
2014-6-5,88.6,72.3,56.0,44.9,36.3,16.5,55,30,14,29.75,29.67,14,2,15,0.00
2014-6-6,84.9,69.3,55.3,53.5,49.0,42.1,78,51,28,29.74,29.68,15,2,15,0.00
2014-6-7,83.4,65.2,52.2,53.6,51.4,49.4,92,66,34,29.73,29.68,11,2,11,0.00
2014-6-8,88.8,72.4,55.3,55.4,52.9,50.6,84,55,28,29.72,29.66,5,1,14,0.00
2014-6-9,93.8,68.3,61.3,56.3,55.3,49.5,80,66,25,29.71,29.61,5,0,13,0.00
2014-6-10,83.6,69.0,57.3,59.2,55.0,51.1,91,64,36,29.79,29.63,13,2,15,0.00
2014-6-11,87.8,69.0,55.6,54.6,50.9,39.9,91,59,20,29.82,29.76,14,1,14,0.00
2014-6-12,87.4,68.7,52.6,56.3,50.0,37.3,90,57,23,29.84,29.79,14,2,15,0.00
2014-6-13,84.9,68.1,52.6,55.0,50.0,42.7,90,58,27,29.84,29.76,13,2,13,0.00
2014-6-14,85.1,67.4,51.0,52.5,48.2,39.0,90,55,23,29.80,29.71,14,2,16,0.00
2014-6-15,84.9,67.2,51.7,54.6,48.0,39.8,90,56,26,29.78,29.71,14,2,14,0.00
2014-6-16,82.4,65.9,52.6,51.1,47.9,38.9,90,58,24,29.81,29.75,16,2,16,0.00
2014-6-17,82.6,65.6,51.4,51.5,46.4,35.7,87,56,25,29.84,29.77,13,1,13,0.00
2014-6-18,83.2,65.3,49.6,51.2,44.7,33.5,88,53,20,29.86,29.78,15,2,15,0.00
2014-6-19,90.5,74.7,53.1,49.3,42.0,31.4,73,35,16,29.86,29.79,15,3,15,0.00
2014-6-20,93.8,77.1,58.6,47.0,40.5,27.9,57,32,10,29.84,29.75,20,3,20,0.00
2014-6-21,91.6,75.9,60.2,52.7,47.3,43.4,64,39,21,29.78,29.73,14,2,14,0.00
2014-6-22,88.6,70.8,54.4,55.2,50.8,39.3,82,54,23,29.81,29.74,13,2,13,0.00
2014-6-23,86.1,69.3,54.1,56.3,52.0,43.7,89,59,27,29.85,29.77,14,2,14,0.00
2014-6-24,85.3,69.7,56.2,57.7,53.3,44.6,91,60,28,29.85,29.79,14,2,14,0.00
2014-6-25,84.9,70.8,56.9,58.0,54.5,51.6,87,59,33,29.81,29.75,14,2,14,0.00
2014-6-26,86.1,69.4,56.3,58.5,54.8,51.6,89,63,34,29.81,29.73,12,2,14,0.00
2014-6-27,83.8,69.1,58.6,57.4,55.2,52.3,86,64,35,29.78,29.72,15,2,15,0.00
2014-6-28,87.2,70.1,57.6,59.5,57.0,53.6,90,66,35,29.77,29.70,12,1,13,0.00
2014-6-29,93.2,75.4,59.8,58.5,55.7,50.5,84,55,26,29.77,29.71,12,2,12,0.00
2014-6-30,89.9,72.7,59.2,61.4,58.0,55.2,93,64,33,29.78,29.71,13,2,13,0.00
2014-7-1,92.1,74.5,60.4,60.2,57.7,53.9,86,60,29,29.78,29.69,14,2,14,0.00
2014-7-2,92.5,75.9,60.2,60.1,57.2,53.2,87,56,28,29.78,29.71,11,1,11,0.00
2014-7-3,97.1,79.7,60.9,58.2,50.5,34.6,82,42,14,29.82,29.72,15,2,15,0.00
2014-7-4,95.4,81.5,66.9,61.3,51.5,37.2,61,37,23,29.90,29.80,21,2,26,0.00
2014-7-5,94.5,80.3,66.4,50.5,45.5,36.7,56,32,17,29.92,29.84,17,2,17,0.00
2014-7-6,94.5,79.7,66.6,47.1,40.8,32.8,46,27,14,29.91,29.80,18,2,18,0.00
2014-7-7,97.3,80.1,65.6,51.2,42.6,33.2,47,28,15,29.82,29.72,13,2,15,0.00
2014-7-8,95.6,78.9,63.7,59.6,48.8,23.3,69,38,13,29.84,29.74,12,2,13,0.00
2014-7-9,92.1,76.5,60.4,59.6,53.8,30.5,86,50,15,29.85,29.75,13,2,13,0.00
2014-7-10,89.7,73.3,58.3,60.5,53.4,36.1,87,56,18,29.86,29.78,16,2,16,0.00
2014-7-11,87.8,72.7,58.3,58.1,53.5,46.5,83,55,27,29.90,29.83,15,2,15,0.00
2014-7-12,90.1,73.9,59.3,55.4,51.0,46.0,77,47,25,29.90,29.82,14,2,14,0.00
2014-7-13,96.8,79.4,64.5,59.8,56.0,50.5,69,48,22,29.85,29.74,12,2,14,0.00
2014-7-14,91.6,77.1,66.6,62.3,60.2,57.0,79,58,35,29.90,29.78,10,2,14,0.00
2014-7-15,88.4,73.5,62.3,61.9,59.4,57.7,87,64,38,29.93,29.85,12,2,15,0.00
2014-7-16,85.5,70.9,59.8,59.5,57.2,53.4,89,65,35,29.94,29.85,14,2,15,0.00
2014-7-17,80.9,66.7,56.6,56.0,53.8,51.1,91,66,38,29.94,29.85,13,2,15,0.00
2014-7-18,84.3,67.6,53.8,55.9,53.2,50.0,89,63,33,29.93,29.85,12,2,13,0.00
2014-7-19,83.4,68.9,59.3,56.7,54.8,51.0,86,64,34,29.89,29.81,13,2,14,0.00
2014-7-20,83.8,67.0,59.3,59.0,56.4,54.9,88,71,40,29.92,29.83,12,1,14,0.00
2014-7-21,88.0,71.3,56.9,59.4,55.0,51.8,90,60,30,29.96,29.89,14,2,15,0.00
2014-7-22,91.8,75.0,58.6,57.1,48.1,32.7,83,44,16,29.95,29.89,14,3,16,0.00
2014-7-23,98.5,80.6,64.5,51.3,42.3,31.3,55,29,10,29.91,29.78,14,3,15,0.00
2014-7-24,103.6,85.8,69.3,49.7,40.3,32.6,43,22,9,29.78,29.63,12,2,13,0.00
2014-7-25,94.9,80.0,66.8,60.1,53.7,45.0,64,43,19,29.81,29.72,10,1,13,0.00
2014-7-26,95.9,80.2,67.6,59.1,53.7,43.0,66,43,23,29.87,29.78,13,2,16,0.00
2014-7-27,92.1,80.4,67.9,56.0,48.2,36.6,61,33,18,29.91,29.81,11,2,14,0.00
2014-7-28,92.9,79.4,68.8,54.7,41.0,26.5,57,27,13,29.96,29.86,13,2,14,0.00
2014-7-29,94.3,79.8,68.1,52.3,43.8,35.2,49,30,15,29.93,29.82,13,2,14,0.00
2014-7-30,96.6,81.8,66.6,53.6,49.1,44.8,54,35,18,29.86,29.79,14,2,16,0.00
2014-7-31,97.8,82.5,67.1,58.9,52.8,46.8,69,39,19,29.81,29.73,14,2,16,0.00
2014-8-1,99.0,81.8,65.0,59.8,55.6,49.2,72,45,20,29.80,29.73,13,2,14,0.00
2014-8-2,84.9,74.9,68.9,64.5,58.9,50.4,84,60,31,29.89,29.75,16,2,20,0.02
2014-8-3,85.7,73.3,66.4,66.8,61.6,55.0,90,69,36,29.87,29.79,16,2,19,0.09
2014-8-4,88.8,74.0,61.5,66.0,52.6,33.0,93,54,16,29.92,29.83,18,2,20,0.01
2014-8-5,91.2,73.5,58.7,48.8,41.7,32.3,63,35,14,29.93,29.86,13,2,13,0.00
2014-8-6,85.7,69.4,55.0,54.0,49.2,44.4,82,52,26,29.93,29.85,13,2,14,0.00
2014-8-7,85.1,69.0,54.4,55.8,53.0,50.1,87,61,31,29.88,29.79,13,2,13,0.00
2014-8-8,88.8,72.8,56.3,59.6,55.7,52.5,91,60,30,29.85,29.77,12,2,14,0.00
2014-8-9,91.0,73.6,58.7,61.0,57.0,50.0,90,61,29,29.87,29.81,13,2,14,0.00
2014-8-10,94.0,76.3,60.5,60.0,53.8,43.8,87,51,26,29.88,29.80,16,2,16,0.00
2014-8-11,94.0,78.8,64.5,56.9,49.5,40.8,66,39,18,29.85,29.78,14,2,15,0.00
2014-8-12,92.7,76.1,64.2,57.6,54.7,49.1,74,51,26,29.86,29.77,14,2,14,0.00
2014-8-13,90.7,74.5,60.5,58.3,56.3,52.6,85,57,28,29.86,29.79,13,1,13,0.00
2014-8-14,94.9,76.1,61.2,59.0,53.9,46.3,82,51,22,29.86,29.79,12,1,14,0.00
2014-8-15,95.4,78.9,62.9,54.2,50.3,44.6,62,40,21,29.89,29.81,17,2,17,0.00
2014-8-16,96.6,79.8,65.0,54.9,46.9,29.5,64,34,21,29.91,29.80,16,2,16,0.00
2014-8-17,96.6,81.2,67.1,50.3,44.8,36.9,46,30,17,29.86,29.73,14,2,15,0.00
2014-8-18,99.0,79.8,64.5,60.2,50.3,32.2,65,39,12,29.76,29.66,15,2,17,0.00
2014-8-19,85.7,70.1,58.9,58.5,55.6,51.8,90,63,35,29.78,29.72,16,2,16,0.00
2014-8-20,80.7,66.3,58.9,64.5,55.5,38.2,89,71,22,29.85,29.77,13,0,13,0.19
2014-8-21,87.2,72.0,58.6,62.5,58.2,55.3,91,65,36,29.87,29.78,13,1,13,0.00
2014-8-22,87.0,73.5,61.3,60.8,56.5,34.6,86,58,24,29.87,29.80,13,1,13,0.00
2014-8-23,88.6,71.2,55.9,53.2,46.6,29.1,82,48,14,29.87,29.76,11,1,12,0.00
2014-8-24,88.8,70.9,55.6,55.8,49.7,40.3,86,52,20,29.81,29.72,14,1,14,0.00
2014-8-25,86.3,72.6,61.2,54.5,50.5,42.4,72,48,25,29.84,29.75,13,2,13,0.00
2014-8-26,90.5,75.2,61.5,54.8,49.6,42.8,73,44,21,29.89,29.82,15,2,16,0.00
2014-8-27,93.8,78.5,64.7,50.2,45.5,37.6,55,34,18,29.94,29.87,13,2,14,0.00
2014-8-28,97.3,80.9,66.9,48.8,45.2,41.1,50,31,15,29.92,29.77,20,3,21,0.00
2014-8-29,97.8,80.8,67.6,50.7,45.1,38.2,50,31,15,29.79,29.68,13,2,15,0.00
2014-8-30,98.2,80.2,64.3,48.7,44.4,36.4,52,31,14,29.73,29.64,12,2,14,0.00
2014-8-31,94.3,78.8,64.0,54.2,48.6,40.9,61,37,18,29.72,29.65,14,2,15,0.00
2014-9-1,96.3,76.7,62.1,55.3,43.4,2.0,70,40,3,29.73,29.67,16,2,18,0.00
2014-9-2,92.5,77.4,58.0,58.7,47.7,29.4,85,41,13,29.74,29.66,12,2,15,0.00
2014-9-3,88.4,72.9,59.0,64.5,57.3,50.8,94,63,29,29.70,29.60,12,2,15,0.00
2014-9-4,86.7,69.5,58.9,62.7,57.3,54.5,94,69,36,29.72,29.62,12,1,13,0.01
2014-9-5,94.0,76.5,59.6,57.2,51.8,36.1,82,48,14,29.79,29.72,10,1,12,0.00
2014-9-6,98.2,82.2,68.4,62.5,54.5,45.9,62,41,19,29.81,29.69,15,2,17,0.00
2014-9-7,94.3,82.1,70.9,64.6,55.1,42.2,53,40,28,29.74,29.63,20,2,22,0.00
2014-9-8,85.5,76.0,68.4,60.0,49.2,40.4,72,40,28,29.80,29.69,11,2,13,0.01
2014-9-9,89.5,75.7,65.2,51.1,45.7,37.0,53,36,18,29.83,29.74,16,2,16,0.00
2014-9-10,95.6,78.2,61.8,51.8,40.6,29.5,52,29,14,29.82,29.70,14,2,14,0.00
2014-9-11,98.2,85.5,67.6,52.3,46.2,38.3,51,28,13,29.79,29.67,15,3,18,0.00
2014-9-12,99.9,82.0,67.1,53.4,47.5,38.1,56,34,13,29.75,29.64,14,2,16,0.00
2014-9-13,102.5,86.0,70.9,51.9,43.5,34.7,44,26,11,29.69,29.60,16,2,17,0.00
2014-9-14,104.4,92.2,76.1,50.3,45.7,36.5,34,21,10,29.67,29.58,14,2,16,0.00
2014-9-15,103.1,89.3,75.8,50.5,45.6,39.1,37,23,12,29.71,29.61,17,2,18,0.00
2014-9-16,102.8,85.7,72.7,67.1,58.3,50.3,70,42,19,29.69,29.59,28,2,30,0.08
2014-9-17,96.3,82.8,71.6,63.7,57.4,48.3,71,45,23,29.68,29.58,15,2,18,0.00
2014-9-18,84.7,72.1,61.6,59.8,55.9,51.4,86,59,33,29.76,29.67,15,2,15,0.00
2014-9-19,83.4,69.7,62.4,60.3,57.1,51.7,88,67,37,29.81,29.73,12,1,14,0.00
2014-9-20,80.7,67.7,58.3,60.3,57.0,54.3,90,71,45,29.85,29.78,12,1,15,0.00
2014-9-21,82.0,67.0,57.0,59.7,56.1,52.5,91,71,39,29.91,29.83,13,1,13,0.00
2014-9-22,89.5,72.6,58.7,56.1,50.6,35.9,80,51,24,29.90,29.82,12,2,15,0.00
2014-9-23,95.1,76.4,61.3,55.1,47.1,31.6,75,41,12,29.89,29.79,13,1,13,0.00
2014-9-24,95.4,80.1,65.6,49.0,43.1,31.5,53,29,16,29.82,29.73,13,2,15,0.00
2014-9-25,94.0,79.3,69.1,55.7,41.0,14.4,52,28,9,29.84,29.74,19,2,19,0.00
2014-9-26,87.6,72.5,58.0,54.3,48.4,27.6,85,46,13,29.78,29.70,15,1,18,0.00
2014-9-27,75.6,62.3,53.1,53.4,49.0,41.2,89,66,33,29.79,29.69,16,1,17,0.00
2014-9-28,76.7,61.9,51.7,53.4,48.8,43.5,90,66,32,29.85,29.76,14,1,15,0.00
2014-9-29,79.8,65.7,51.7,54.9,48.7,42.2,92,60,27,29.85,29.78,13,1,14,0.00
2014-9-30,86.3,71.1,57.6,48.7,43.4,36.4,62,40,19,29.81,29.67,15,2,16,0.00
2014-10-1,87.4,70.1,56.6,54.1,47.1,37.7,70,48,19,29.80,29.66,14,1,14,0.00
2014-10-2,92.1,75.9,63.1,50.9,21.9,9.3,59,18,5,29.92,29.80,12,2,14,0.00
2014-10-3,94.9,78.2,61.5,21.7,11.3,-6.5,16,9,3,29.97,29.86,11,1,11,0.00
2014-10-4,99.7,81.7,68.9,27.7,18.4,10.3,17,10,4,29.88,29.75,14,1,14,0.00
2014-10-5,98.2,80.0,67.3,31.2,22.7,16.0,23,13,6,29.83,29.73,14,2,16,0.00
2014-10-6,96.1,77.6,63.5,36.4,27.7,21.5,27,17,7,29.82,29.73,15,1,15,0.00
2014-10-7,92.7,76.0,65.3,52.7,33.2,22.5,56,24,9,29.82,29.73,11,1,11,0.00
2014-10-8,88.0,72.7,61.3,51.0,44.7,34.1,63,40,16,29.78,29.69,12,1,13,0.00
2014-10-9,80.3,66.2,54.4,55.7,51.9,46.1,88,62,35,29.87,29.78,12,1,12,0.00
2014-10-10,82.8,68.1,54.5,58.2,52.0,46.0,92,61,32,29.90,29.84,13,1,13,0.00
2014-10-11,88.4,71.2,57.8,54.3,49.2,42.7,82,51,21,29.89,29.80,13,1,14,0.00
2014-10-12,89.0,70.8,58.4,54.3,48.1,32.3,81,49,16,29.85,29.75,10,1,11,0.00
2014-10-13,91.2,73.0,58.9,54.7,34.5,9.6,82,32,5,29.93,29.84,14,1,14,0.00
2014-10-14,80.7,67.8,58.7,54.8,49.4,36.0,82,54,23,29.89,29.80,12,1,12,0.00
2014-10-15,76.5,63.2,54.5,55.8,51.9,47.8,90,70,39,29.92,29.83,13,2,13,0.00
2014-10-16,76.8,62.4,52.6,53.8,50.7,47.2,89,69,36,29.95,29.83,11,1,11,0.00
2014-10-17,74.9,61.1,51.6,55.4,52.1,48.5,92,74,44,29.91,29.83,12,1,13,0.00
2014-10-18,77.4,61.7,54.8,53.5,50.6,42.5,84,69,30,29.87,29.75,11,0,11,0.00
2014-10-19,78.3,63.8,52.6,54.9,51.1,46.9,87,66,36,29.84,29.76,12,1,12,0.00
2014-10-20,78.5,64.4,54.4,58.4,54.6,51.0,91,72,46,29.85,29.78,11,1,11,0.00
2014-10-21,78.6,64.4,53.8,60.3,52.3,45.9,93,69,35,29.84,29.75,13,1,13,0.01
2014-10-22,88.0,68.8,54.7,52.4,42.7,18.0,82,47,8,29.90,29.80,10,0,10,0.00
2014-10-23,89.0,72.7,61.0,50.1,38.0,18.7,64,33,8,29.92,29.83,12,1,12,0.00
2014-10-24,89.5,73.5,61.6,40.3,34.2,27.4,43,26,11,29.93,29.84,13,1,13,0.00
2014-10-25,82.4,70.0,57.5,49.5,39.4,29.0,70,35,21,29.94,29.88,15,2,18,0.00
2014-10-26,75.8,61.6,51.0,55.0,49.3,43.2,83,66,35,29.91,29.78,9,0,9,0.00
2014-10-27,78.1,61.0,50.4,52.9,48.2,42.2,89,67,28,29.89,29.79,11,1,11,0.00
2014-10-28,80.9,64.9,52.0,54.2,46.7,36.0,92,58,24,29.97,29.88,12,1,12,0.01
2014-10-29,87.6,69.6,56.9,48.1,36.8,19.8,67,37,9,29.97,29.87,12,1,12,0.00
2014-10-30,83.6,66.9,56.3,52.3,42.2,23.3,82,46,12,29.91,29.83,12,1,13,0.00
2014-10-31,67.4,58.4,51.6,54.0,51.2,48.3,92,78,57,29.88,29.77,12,1,13,0.10
2014-11-1,61.8,53.3,45.7,51.3,44.8,37.8,91,74,48,29.91,29.75,21,3,21,0.09
2014-11-2,65.2,50.7,42.8,45.4,41.4,32.1,89,73,32,30.01,29.91,10,0,10,0.00
2014-11-3,66.8,55.2,44.8,41.3,24.2,12.6,83,37,14,30.11,30.00,22,3,22,0.00
2014-11-4,74.6,63.5,48.2,16.3,8.6,0.9,27,12,7,30.15,30.03,14,2,14,0.00
2014-11-5,83.2,67.6,54.7,22.3,11.4,-0.9,20,12,6,30.07,29.97,14,1,14,0.00
2014-11-6,87.2,71.0,58.1,25.0,19.8,11.1,25,15,6,30.11,30.00,8,0,9,0.00
2014-11-7,86.7,69.9,56.7,29.6,21.8,11.3,27,18,6,30.05,29.91,8,0,9,0.00
2014-11-8,89.0,71.7,59.8,30.4,24.3,18.9,28,18,8,29.98,29.88,8,0,9,0.00
2014-11-9,85.1,68.8,53.6,45.5,33.0,24.0,73,31,12,29.91,29.70,10,1,10,0.00
2014-11-10,71.8,56.6,46.7,51.2,47.2,41.8,92,73,37,29.83,29.71,11,1,11,0.00
2014-11-11,61.5,56.3,52.6,50.0,46.8,44.1,89,71,56,29.88,29.82,8,0,8,0.00
2014-11-12,67.4,56.4,50.2,51.8,47.2,43.3,90,73,43,29.97,29.86,11,1,11,0.00
2014-11-13,67.1,55.9,48.8,50.6,48.1,45.1,89,76,49,30.01,29.93,10,1,10,0.00
2014-11-14,66.3,56.4,51.1,54.1,49.9,46.9,91,80,53,29.97,29.89,8,1,8,0.00
2014-11-15,67.9,55.8,49.4,54.4,48.7,45.5,94,79,46,30.01,29.91,13,1,15,0.01
2014-11-16,65.6,54.0,45.8,48.2,8.8,-12.4,92,28,4,30.15,29.96,21,4,22,0.01
2014-11-17,71.5,57.6,46.2,9.4,1.9,-8.1,18,11,7,30.13,30.04,17,2,17,0.00
2014-11-18,73.7,59.2,48.3,11.3,6.6,-2.5,20,13,5,30.12,30.04,9,0,11,0.00
2014-11-19,70.8,56.5,46.5,41.3,21.7,6.4,76,32,10,30.07,29.98,11,1,12,0.00
2014-11-20,66.6,54.9,43.9,50.6,42.2,33.2,89,65,33,30.04,29.89,12,1,12,0.00
2014-11-21,66.8,55.1,48.0,50.6,44.1,36.1,92,70,33,30.00,29.84,14,1,14,0.00
2014-11-22,68.9,55.6,45.5,44.5,41.4,33.0,86,63,31,30.05,29.93,9,1,10,0.00
2014-11-23,71.3,56.8,46.0,44.7,18.3,-8.6,85,32,4,30.12,29.97,24,3,25,0.00
2014-11-24,72.5,56.6,46.2,11.8,6.3,2.8,20,14,7,30.28,30.09,20,1,21,0.00
2014-11-25,76.0,60.2,45.1,11.9,4.9,-5.4,23,12,4,30.34,30.21,8,0,8,0.00
2014-11-26,84.7,68.2,55.4,18.1,10.6,3.4,17,11,7,30.22,30.09,10,1,11,0.00
2014-11-27,87.4,69.3,58.6,16.8,13.6,8.3,17,12,5,30.07,29.94,1,0,8,0.00
2014-11-28,80.7,67.2,58.6,28.1,18.2,13.5,31,17,8,29.93,29.80,2,0,9,0.00
2014-11-29,76.3,60.7,51.4,45.1,25.6,17.4,79,30,14,29.84,29.75,5,1,15,0.00
2014-11-30,57.0,54.1,49.2,50.7,49.7,45.3,89,85,72,30.05,29.80,5,0,18,0.00
2014-12-1,64.3,55.5,47.9,53.1,46.4,39.0,93,73,50,30.12,29.98,8,0,8,0.01
2014-12-2,60.4,54.3,51.9,52.1,45.4,32.8,92,75,37,29.98,29.84,19,2,19,0.93
2014-12-3,63.4,58.3,54.2,59.0,55.8,51.9,95,91,82,29.95,29.85,13,1,15,0.51
2014-12-4,65.3,57.2,50.8,56.7,52.1,47.2,95,84,53,30.01,29.85,9,1,13,0.19
2014-12-5,65.2,55.7,49.2,52.7,49.1,45.0,94,80,51,30.08,29.99,8,0,9,0.01
2014-12-6,67.1,56.8,49.8,52.2,48.1,42.8,92,74,48,30.15,30.08,8,0,9,0.00
2014-12-7,74.0,59.7,51.1,47.6,43.3,36.5,77,57,27,30.15,30.04,10,0,10,0.00
2014-12-8,75.3,60.5,52.2,42.7,39.6,33.6,67,48,24,30.05,29.98,7,0,8,0.00
2014-12-9,74.7,60.9,51.6,45.6,37.9,29.3,63,45,19,30.05,29.93,11,0,11,0.00
2014-12-10,71.8,59.3,52.0,44.9,37.1,29.7,72,46,22,29.96,29.86,7,0,7,0.00
2014-12-11,66.0,56.5,50.8,50.5,47.1,41.7,85,72,43,29.92,29.81,17,3,21,0.00
2014-12-12,53.6,49.3,45.2,49.1,46.5,42.7,92,90,84,30.01,29.78,24,3,27,0.67
2014-12-13,57.2,47.4,41.1,46.0,40.1,36.3,92,77,48,30.08,30.00,6,0,8,0.06
2014-12-14,60.4,48.4,40.1,42.2,38.8,35.7,86,71,48,30.09,30.00,7,0,9,0.01
2014-12-15,59.5,49.7,42.6,39.7,35.5,31.1,82,60,36,30.02,29.92,12,1,12,0.00
2014-12-16,52.8,48.3,44.2,46.2,43.7,38.2,90,84,76,29.97,29.90,13,2,13,0.06
2014-12-17,54.8,48.2,42.5,47.2,43.3,38.7,92,83,65,30.07,29.89,14,1,14,0.11
2014-12-18,57.5,47.6,41.5,45.1,40.6,38.0,91,78,55,30.17,30.05,7,0,7,0.01
2014-12-19,61.3,49.1,41.8,43.4,40.4,38.2,89,74,44,30.19,30.09,9,0,10,0.00
2014-12-20,57.5,48.1,42.9,46.2,42.7,39.6,89,82,58,30.14,30.05,7,0,7,0.01
2014-12-21,68.1,53.5,44.6,49.3,44.9,40.9,91,74,45,30.11,29.99,6,0,6,0.01
2014-12-22,76.5,61.3,52.0,47.9,41.6,37.2,67,50,25,30.00,29.89,8,1,8,0.00
2014-12-23,76.3,64.1,55.9,38.5,32.3,27.9,47,31,19,30.05,29.94,14,2,14,0.00
2014-12-24,70.8,57.3,46.8,41.6,31.0,25.6,74,38,22,30.02,29.73,10,0,12,0.00
2014-12-25,55.6,49.0,44.2,45.8,24.8,7.3,87,45,15,29.87,29.68,25,5,25,0.00
2014-12-26,54.1,45.4,37.9,12.7,9.6,7.3,33,23,16,30.17,29.87,18,4,20,0.00
2014-12-27,56.0,43.8,35.8,18.4,9.9,5.1,37,26,14,30.29,30.16,15,2,16,0.00
2014-12-28,58.3,44.6,34.7,29.2,14.6,6.9,68,32,14,30.25,30.11,8,0,8,0.00
2014-12-29,58.7,44.6,36.5,34.7,31.2,26.5,79,62,35,30.11,29.98,7,0,7,0.00
2014-12-30,47.3,39.4,32.2,42.8,35.8,29.0,91,87,80,29.99,29.84,16,2,19,0.09
2014-12-31,41.6,32.5,27.2,29.9,18.6,7.4,92,62,27,30.03,29.88,18,1,21,0.28
2015-1-1,49.8,37.2,27.3,29.7,22.0,14.3,74,55,35,30.15,30.02,8,0,8,0.01
2015-1-2,55.9,42.4,32.7,34.1,28.0,17.2,86,59,23,30.12,30.02,6,0,6,0.00